createdAt,value
2023-01-17T00:02:16.757Z,36.45
2023-01-17T00:05:02.268Z,39.20
2023-01-17T00:07:49.473Z,48.95
2023-01-17T00:10:19.762Z,41.60
2023-01-17T00:12:52.474Z,41.55
2023-01-17T00:15:20.505Z,41.15
2023-01-17T00:17:48.396Z,44.85
2023-01-17T00:20:40.560Z,45.42
2023-01-17T00:23:38.345Z,28.35
2023-01-17T00:26:14.251Z,32.45
2023-01-17T00:28:42.760Z,44.40
2023-01-17T00:31:11.813Z,46.92
2023-01-17T00:33:39.057Z,41.00
2023-01-17T00:36:07.205Z,47.40
2023-01-17T00:38:36.894Z,44.83
2023-01-17T00:41:09.486Z,34.03
2023-01-17T00:43:55.420Z,42.30
2023-01-17T00:46:41.113Z,31.65
2023-01-17T00:49:27.194Z,28.42
2023-01-17T00:52:13.507Z,26.40
2023-01-17T00:54:59.098Z,19.70
2023-01-17T00:57:44.763Z,25.05
2023-01-17T01:00:31.483Z,37.25
2023-01-17T01:03:17.099Z,27.73
2023-01-17T01:06:02.838Z,17.13
2023-01-17T01:08:49.475Z,21.23
2023-01-17T01:11:39.051Z,28.20
2023-01-17T01:14:26.783Z,25.17
2023-01-17T01:17:12.426Z,18.48
2023-01-17T01:19:57.875Z,34.85
2023-01-17T01:22:43.680Z,34.60
2023-01-17T01:25:29.305Z,33.45
2023-01-17T01:28:41.177Z,33.97
2023-01-17T01:31:27.233Z,28.17
2023-01-17T01:33:54.585Z,24.83
2023-01-17T01:36:21.879Z,29.20
2023-01-17T01:38:50.414Z,30.65
2023-01-17T01:41:17.997Z,25.23
2023-01-17T01:43:46.698Z,25.00
2023-01-17T01:46:39.628Z,21.08
2023-01-17T01:49:25.099Z,17.13
2023-01-17T01:51:59.876Z,30.58
2023-01-17T01:54:34.870Z,30.38
2023-01-17T01:57:05.365Z,24.60
2023-01-17T01:59:33.965Z,31.52
2023-01-17T02:02:01.805Z,27.55
2023-01-17T02:04:29.442Z,54.95
2023-01-17T02:07:06.832Z,46.75
2023-01-17T02:09:34.609Z,34.08
2023-01-17T02:12:03.147Z,37.67
2023-01-17T02:14:30.385Z,28.35
2023-01-17T02:17:23.629Z,25.40
2023-01-17T02:20:05.854Z,27.73
2023-01-17T02:22:51.696Z,26.92
2023-01-17T02:25:27.855Z,23.58
2023-01-17T02:28:13.988Z,26.70
2023-01-17T02:30:50.353Z,25.73
2023-01-17T02:33:43.990Z,18.75
2023-01-17T02:36:31.996Z,19.33
2023-01-17T02:38:58.977Z,19.70
2023-01-17T02:41:34.909Z,19.10
2023-01-17T02:44:02.447Z,22.55
2023-01-17T02:46:29.564Z,28.50
2023-01-17T02:48:58.899Z,26.50
2023-01-17T02:51:39.089Z,19.40
2023-01-17T02:54:38.265Z,22.55
2023-01-17T02:57:08.152Z,18.42
2023-01-17T02:59:52.147Z,21.92
2023-01-17T03:02:27.611Z,20.60
2023-01-17T03:05:02.334Z,20.40
2023-01-17T03:07:30.713Z,19.10
2023-01-17T03:10:01.560Z,13.77
2023-01-17T03:12:32.609Z,18.08
2023-01-17T03:14:59.683Z,21.58
2023-01-17T03:17:32.018Z,16.52
2023-01-17T03:19:59.471Z,17.57
2023-01-17T03:22:26.550Z,23.15
2023-01-17T03:24:53.769Z,18.92
2023-01-17T03:27:20.837Z,18.38
2023-01-17T03:29:47.923Z,22.05
2023-01-17T03:32:14.993Z,17.02
2023-01-17T03:34:42.023Z,18.40
2023-01-17T03:37:09.059Z,16.63
2023-01-17T03:39:36.165Z,20.02
2023-01-17T03:42:03.262Z,19.77
2023-01-17T03:44:30.871Z,14.85
2023-01-17T03:46:57.977Z,17.10
2023-01-17T03:49:25.037Z,15.52
2023-01-17T03:51:52.136Z,21.23
2023-01-17T03:54:19.274Z,21.48
2023-01-17T03:56:46.301Z,19.65
2023-01-17T03:59:13.493Z,18.73
2023-01-17T04:01:40.701Z,17.98
2023-01-17T04:04:07.844Z,19.77
2023-01-17T04:06:34.853Z,16.58
2023-01-17T04:09:02.047Z,20.52
2023-01-17T04:11:29.232Z,20.30
2023-01-17T04:13:56.343Z,20.15
2023-01-17T04:16:28.556Z,21.83
2023-01-17T04:19:01.382Z,20.85
2023-01-17T04:21:37.576Z,18.42
2023-01-17T04:24:08.128Z,21.70
2023-01-17T04:26:35.869Z,22.65
2023-01-17T04:29:03.216Z,22.65
2023-01-17T04:31:30.566Z,22.95
2023-01-17T04:33:57.719Z,24.35
2023-01-17T04:36:24.734Z,22.75
2023-01-17T04:38:52.231Z,26.08
2023-01-17T04:41:19.277Z,22.50
2023-01-17T04:43:46.288Z,19.23
2023-01-17T04:46:13.506Z,21.95
2023-01-17T04:48:40.622Z,22.08
2023-01-17T04:51:07.721Z,21.20
2023-01-17T04:53:38.030Z,34.03
2023-01-17T04:56:05.469Z,22.40
2023-01-17T04:58:33.630Z,21.65
2023-01-17T05:01:05.566Z,18.95
2023-01-17T05:03:33.005Z,22.42
2023-01-17T05:06:01.033Z,16.75
2023-01-17T05:08:28.411Z,20.63
2023-01-17T05:10:56.274Z,19.13
2023-01-17T05:13:23.350Z,17.90
2023-01-17T05:15:50.597Z,18.90
2023-01-17T05:18:19.028Z,18.13
2023-01-17T05:20:46.200Z,18.80
2023-01-17T05:23:13.316Z,16.17
2023-01-17T05:25:44.448Z,20.42
2023-01-17T05:28:13.293Z,18.48
2023-01-17T05:30:40.457Z,22.50
2023-01-17T05:33:09.508Z,28.75
2023-01-17T05:35:37.214Z,22.35
2023-01-17T05:38:04.331Z,21.55
2023-01-17T05:40:34.096Z,15.82
2023-01-17T05:43:03.427Z,19.35
2023-01-17T05:45:32.174Z,19.77
2023-01-17T05:48:01.681Z,22.85
2023-01-17T05:50:31.935Z,19.83
2023-01-17T05:53:04.402Z,22.42
2023-01-17T05:55:32.223Z,18.35
2023-01-17T05:57:59.414Z,15.45
2023-01-17T06:00:27.307Z,23.55
2023-01-17T06:02:56.274Z,20.58
2023-01-17T06:05:24.874Z,22.92
2023-01-17T06:07:52.359Z,28.42
2023-01-17T06:10:21.004Z,18.73
2023-01-17T06:12:48.564Z,30.38
2023-01-17T06:15:17.938Z,21.20
2023-01-17T06:17:45.316Z,22.92
2023-01-17T06:20:13.324Z,22.85
2023-01-17T06:22:40.357Z,17.60
2023-01-17T06:25:08.777Z,27.83
2023-01-17T06:27:36.409Z,21.05
2023-01-17T06:30:04.457Z,16.33
2023-01-17T06:32:31.687Z,27.35
2023-01-17T06:34:58.851Z,18.35
2023-01-17T06:37:26.417Z,24.45
2023-01-17T06:39:53.447Z,18.63
2023-01-17T06:42:20.545Z,23.08
2023-01-17T06:44:47.637Z,22.33
2023-01-17T06:47:14.737Z,24.88
2023-01-17T06:49:41.950Z,28.85
2023-01-17T06:52:09.112Z,17.98
2023-01-17T06:54:36.206Z,29.02
2023-01-17T06:57:03.367Z,25.52
2023-01-17T06:59:30.488Z,28.25
2023-01-17T07:01:57.651Z,27.45
2023-01-17T07:04:24.892Z,31.65
2023-01-17T07:06:51.971Z,26.67
2023-01-17T07:09:18.984Z,25.98
2023-01-17T07:11:46.284Z,29.00
2023-01-17T07:14:14.745Z,25.15
2023-01-17T07:16:46.163Z,27.95
2023-01-17T07:19:13.371Z,24.95
2023-01-17T07:21:40.666Z,30.15
2023-01-17T07:24:09.195Z,28.40
2023-01-17T07:26:40.367Z,31.23
2023-01-17T07:29:07.722Z,31.08
2023-01-17T07:31:36.873Z,29.88
2023-01-17T07:34:04.266Z,34.00
2023-01-17T07:36:31.379Z,31.95
2023-01-17T07:38:58.480Z,35.00
2023-01-17T07:41:25.785Z,33.03
2023-01-17T07:43:56.385Z,37.15
2023-01-17T07:46:23.756Z,29.55
2023-01-17T07:48:51.006Z,33.85
2023-01-17T07:51:18.163Z,42.03
2023-01-17T07:53:45.312Z,37.35
2023-01-17T07:56:15.288Z,37.70
2023-01-17T07:58:43.058Z,30.85
2023-01-17T08:01:12.979Z,31.35
2023-01-17T08:03:40.584Z,34.63
2023-01-17T08:06:17.324Z,34.28
2023-01-17T08:08:45.024Z,37.22
2023-01-17T08:11:12.463Z,38.80
2023-01-17T08:13:40.327Z,39.22
2023-01-17T08:16:09.891Z,29.55
2023-01-17T08:18:37.554Z,37.55
2023-01-17T08:21:08.329Z,28.25
2023-01-17T08:23:51.982Z,31.73
2023-01-17T08:26:22.652Z,40.63
2023-01-17T08:29:00.892Z,37.92
2023-01-17T08:31:30.614Z,35.20
2023-01-17T08:33:58.109Z,31.60
2023-01-17T08:36:26.092Z,31.05
2023-01-17T08:38:53.931Z,38.60
2023-01-17T08:41:22.048Z,36.20
2023-01-17T08:43:50.335Z,34.03
2023-01-17T08:46:18.466Z,35.45
2023-01-17T08:48:46.471Z,27.45
2023-01-17T08:51:13.843Z,37.28
2023-01-17T08:53:41.018Z,37.28
2023-01-17T08:56:08.318Z,29.77
2023-01-17T08:58:36.011Z,33.65
2023-01-17T09:01:05.708Z,38.67
2023-01-17T09:03:34.284Z,30.60
2023-01-17T09:06:13.217Z,37.97
2023-01-17T09:08:40.846Z,36.08
2023-01-17T09:11:10.681Z,48.83
2023-01-17T09:13:38.756Z,38.17
2023-01-17T09:16:06.920Z,39.20
2023-01-17T09:18:35.853Z,37.65
2023-01-17T09:21:17.443Z,31.60
2023-01-17T09:23:45.101Z,36.72
2023-01-17T09:26:27.536Z,38.67
2023-01-17T09:28:55.165Z,35.45
2023-01-17T09:31:23.623Z,33.17
2023-01-17T09:33:52.288Z,33.22
2023-01-17T09:36:24.321Z,27.83
2023-01-17T09:38:56.632Z,29.40
2023-01-17T09:41:28.782Z,29.17
2023-01-17T09:44:17.912Z,27.45
2023-01-17T09:46:47.602Z,32.00
2023-01-17T09:49:39.751Z,35.33
2023-01-17T09:52:08.944Z,35.70
2023-01-17T09:54:42.493Z,32.65
2023-01-17T09:57:40.645Z,41.97
2023-01-17T10:00:22.904Z,30.60
2023-01-17T10:03:20.965Z,41.55
2023-01-17T10:06:20.221Z,50.33
2023-01-17T10:09:08.133Z,38.38
2023-01-17T10:11:44.091Z,39.45
2023-01-17T10:14:23.051Z,45.22
2023-01-17T10:16:52.878Z,40.42
2023-01-17T10:19:37.056Z,39.75
2023-01-17T10:22:41.092Z,36.90
2023-01-17T10:27:51.422Z,32.15
2023-01-17T10:30:26.548Z,26.23
2023-01-17T10:32:57.270Z,37.60
2023-01-17T10:35:34.183Z,42.30
2023-01-17T10:38:05.744Z,39.60
2023-01-17T10:40:50.434Z,38.60
2023-01-17T10:43:27.607Z,44.65
2023-01-17T10:45:57.151Z,34.50
2023-01-17T10:48:40.177Z,33.25
2023-01-17T10:51:35.726Z,41.20
2023-01-17T10:57:53.145Z,50.40
2023-01-17T11:00:35.646Z,36.80
2023-01-17T11:03:03.755Z,49.17
2023-01-17T11:05:33.004Z,41.00
2023-01-17T11:08:10.485Z,42.28
2023-01-17T11:10:43.802Z,40.00
2023-01-17T11:15:53.511Z,26.20
2023-01-17T11:18:22.132Z,46.70
2023-01-17T11:20:50.093Z,49.05
2023-01-17T11:23:30.213Z,31.98
2023-01-17T11:26:06.316Z,47.15
2023-01-17T11:28:35.839Z,39.40
2023-01-17T11:31:09.169Z,36.65
2023-01-17T11:33:48.324Z,48.85
2023-01-17T11:36:21.409Z,47.55
2023-01-17T11:39:14.153Z,36.40
2023-01-17T11:41:42.188Z,38.57
2023-01-17T11:44:31.027Z,37.28
2023-01-17T11:47:09.014Z,45.78
2023-01-17T11:49:36.438Z,43.95
2023-01-17T11:52:32.589Z,31.95
2023-01-17T11:55:00.577Z,30.60
2023-01-17T11:57:34.261Z,43.80
2023-01-17T12:00:24.999Z,32.70
2023-01-17T12:03:04.401Z,37.47
2023-01-17T12:06:03.115Z,46.15
2023-01-17T12:08:45.377Z,33.70
2023-01-17T12:11:22.875Z,40.13
2023-01-17T12:14:03.383Z,36.28
2023-01-17T12:16:55.436Z,30.55
2023-01-17T12:20:01.651Z,37.47
2023-01-17T12:22:46.458Z,37.97
2023-01-17T12:25:22.341Z,28.67
2023-01-17T12:28:15.962Z,40.78
2023-01-17T12:33:59.493Z,33.63
2023-01-17T12:36:57.286Z,35.38
2023-01-17T12:39:34.273Z,35.25
2023-01-17T12:42:11.031Z,32.80
2023-01-17T12:44:38.148Z,29.67
2023-01-17T12:47:06.604Z,33.70
2023-01-17T12:49:45.685Z,30.85
2023-01-17T12:52:44.796Z,29.63
2023-01-17T12:55:20.598Z,28.27
2023-01-17T12:57:57.339Z,26.17
2023-01-17T13:00:34.510Z,34.30
2023-01-17T13:03:35.254Z,28.85
2023-01-17T13:06:03.821Z,34.85
2023-01-17T13:08:43.028Z,24.70
2023-01-17T13:11:34.105Z,31.23
2023-01-17T13:14:38.964Z,27.90
2023-01-17T13:18:01.112Z,34.35
2023-01-17T13:20:47.750Z,34.65
2023-01-17T13:23:27.910Z,27.25
2023-01-17T13:25:58.820Z,30.80
2023-01-17T13:29:01.344Z,31.75
2023-01-17T13:32:05.741Z,27.27
2023-01-17T13:34:38.507Z,24.58
2023-01-17T13:37:37.128Z,26.27
2023-01-17T13:40:29.275Z,25.90
2023-01-17T13:43:01.047Z,32.22
2023-01-17T13:45:36.770Z,31.33
2023-01-17T13:48:14.230Z,23.95
2023-01-17T13:50:41.283Z,24.65
2023-01-17T13:53:37.050Z,25.13
2023-01-17T13:56:19.185Z,27.40
2023-01-17T13:58:54.712Z,24.58
2023-01-17T14:01:22.532Z,25.95
2023-01-17T14:03:53.191Z,26.95
2023-01-17T14:06:50.021Z,24.05
2023-01-17T14:09:40.518Z,26.90
2023-01-17T14:12:11.351Z,27.05
2023-01-17T14:14:50.239Z,26.88
2023-01-17T14:17:24.836Z,31.17
2023-01-17T14:20:09.987Z,19.10
2023-01-17T14:22:44.097Z,26.73
2023-01-17T14:25:20.049Z,24.95
2023-01-17T14:27:55.025Z,21.58
2023-01-17T14:30:22.621Z,22.40
2023-01-17T14:32:58.789Z,22.10
2023-01-17T14:35:29.921Z,23.42
2023-01-17T14:37:57.877Z,22.40
2023-01-17T14:40:27.544Z,26.02
2023-01-17T14:43:07.891Z,24.27
2023-01-17T14:45:36.623Z,21.70
2023-01-17T14:48:13.761Z,21.67
2023-01-17T14:50:42.717Z,23.65
2023-01-17T14:53:12.936Z,24.20
2023-01-17T14:55:52.982Z,27.75
2023-01-17T14:58:24.311Z,25.30
2023-01-17T15:01:07.328Z,33.03
2023-01-17T15:03:44.536Z,21.13
2023-01-17T15:06:18.046Z,25.77
2023-01-17T15:08:48.525Z,27.20
2023-01-17T15:11:22.953Z,24.92
2023-01-17T15:13:57.603Z,25.58
2023-01-17T15:16:29.646Z,28.73
2023-01-17T15:18:57.750Z,29.90
2023-01-17T15:21:29.827Z,28.15
2023-01-17T15:24:05.766Z,20.92
2023-01-17T15:26:43.356Z,28.80
2023-01-17T15:29:32.556Z,25.38
2023-01-17T15:32:02.284Z,21.45
2023-01-17T15:34:38.237Z,22.27
2023-01-17T15:37:40.128Z,19.17
2023-01-17T15:40:25.644Z,24.10
2023-01-17T15:43:02.185Z,25.52
2023-01-17T15:45:32.385Z,21.23
2023-01-17T15:48:52.164Z,19.90
2023-01-17T15:51:38.870Z,27.10
2023-01-17T15:54:52.932Z,19.20
2023-01-17T15:57:37.341Z,20.42
2023-01-17T16:00:20.428Z,22.92
2023-01-17T16:02:55.982Z,20.55
2023-01-17T16:05:23.554Z,20.85
2023-01-17T16:08:16.342Z,23.75
2023-01-17T16:10:47.174Z,26.83
2023-01-17T16:13:15.560Z,26.58
2023-01-17T16:15:50.141Z,26.55
2023-01-17T16:18:28.479Z,28.27
2023-01-17T16:21:14.201Z,27.58
2023-01-17T16:23:49.187Z,21.45
2023-01-17T16:26:17.092Z,28.20
2023-01-17T16:31:49.051Z,25.80
2023-01-17T16:35:06.438Z,25.88
2023-01-17T16:37:38.029Z,27.20
2023-01-17T16:40:29.686Z,28.33
2023-01-17T16:43:18.358Z,31.23
2023-01-17T16:46:06.543Z,34.78
2023-01-17T16:48:41.142Z,29.13
2023-01-17T16:51:19.816Z,30.35
2023-01-17T16:54:09.419Z,27.75
2023-01-17T16:57:07.178Z,30.30
2023-01-17T16:59:50.225Z,21.40
2023-01-17T17:02:23.264Z,29.55
2023-01-17T17:04:53.619Z,34.50
2023-01-17T17:07:23.553Z,25.95
2023-01-17T17:09:50.977Z,25.92
2023-01-17T17:12:19.482Z,31.23
2023-01-17T17:14:52.944Z,30.98
2023-01-17T17:17:20.209Z,31.80
2023-01-17T17:19:49.888Z,25.23
2023-01-17T17:22:17.191Z,28.98
2023-01-17T17:24:47.614Z,32.75
2023-01-17T17:27:14.964Z,33.83
2023-01-17T17:46:07.044Z,32.22
2023-01-17T17:48:34.836Z,33.28
2023-01-17T17:56:38.438Z,29.23
2023-01-17T17:59:09.042Z,33.20
2023-01-17T18:01:41.027Z,33.08
2023-01-17T18:04:11.753Z,30.85
2023-01-17T18:06:40.230Z,36.08
2023-01-17T18:09:09.037Z,35.28
2023-01-17T18:11:38.994Z,35.60
2023-01-17T18:14:12.689Z,32.45
2023-01-17T18:16:42.869Z,34.75
2023-01-17T18:27:36.238Z,31.23
2023-01-17T18:30:03.901Z,33.20
2023-01-17T18:32:34.940Z,35.65
2023-01-17T18:35:08.071Z,35.15
2023-01-17T18:37:39.228Z,34.30
2023-01-17T18:40:16.158Z,34.45
2023-01-17T18:42:45.765Z,29.80
2023-01-17T18:45:41.604Z,29.15
2023-01-17T18:48:17.470Z,21.02
2023-01-17T18:51:06.226Z,25.70
2023-01-17T18:53:41.065Z,28.08
2023-01-17T18:56:13.841Z,22.05
2023-01-17T19:00:06.201Z,24.45
2023-01-17T19:02:41.157Z,29.45
2023-01-17T19:05:11.962Z,31.02
2023-01-17T19:07:39.771Z,32.00
2023-01-17T19:10:10.562Z,37.15
2023-01-17T19:12:37.819Z,27.15
2023-01-17T19:15:08.392Z,28.85
2023-01-17T19:17:35.735Z,29.42
2023-01-17T19:20:03.270Z,25.00
2023-01-17T19:22:30.912Z,24.85
2023-01-17T19:25:05.097Z,35.55
2023-01-17T19:27:32.833Z,38.25
2023-01-17T19:30:02.701Z,29.92
2023-01-17T19:32:35.683Z,42.40
2023-01-17T19:35:11.608Z,32.05
2023-01-17T19:37:48.269Z,30.25
2023-01-17T19:40:19.391Z,31.50
2023-01-17T19:42:55.351Z,34.70
2023-01-17T19:45:22.810Z,28.08
2023-01-17T19:47:59.109Z,27.23
2023-01-17T19:50:28.562Z,23.48
2023-01-17T19:52:55.958Z,38.22
2023-01-17T20:06:33.421Z,25.35
2023-01-17T20:09:00.849Z,44.17
2023-01-17T20:11:29.754Z,30.67
2023-01-17T20:13:58.462Z,38.83
2023-01-17T20:16:28.558Z,30.30
2023-01-17T20:18:58.392Z,38.97
2023-01-17T20:21:33.592Z,33.15
2023-01-17T20:24:03.738Z,30.73
2023-01-17T20:26:36.367Z,32.83
2023-01-17T20:29:10.938Z,32.35
2023-01-17T20:31:40.813Z,25.75
2023-01-17T20:34:10.860Z,31.45
2023-01-17T20:36:40.984Z,31.50
2023-01-17T20:39:13.940Z,24.67
2023-01-17T20:41:43.183Z,26.92
2023-01-17T20:44:16.466Z,33.42
2023-01-17T20:49:17.787Z,32.42
2023-01-17T20:51:46.606Z,31.35
2023-01-17T20:54:16.436Z,33.15
2023-01-17T20:56:46.791Z,32.42
2023-01-17T20:59:16.757Z,29.17
2023-01-17T21:01:45.032Z,31.17
2023-01-17T21:04:13.364Z,38.53
2023-01-17T21:06:43.897Z,37.15
2023-01-17T21:09:17.372Z,31.40
2023-01-17T21:11:44.917Z,32.35
2023-01-17T21:14:12.259Z,32.60
2023-01-17T21:16:40.308Z,35.72
2023-01-17T21:19:14.397Z,37.42
2023-01-17T21:21:41.726Z,26.52
2023-01-17T21:24:16.454Z,36.28
2023-01-17T21:26:45.610Z,27.73
2023-01-17T21:29:16.369Z,29.10
2023-01-17T21:31:44.032Z,35.05
2023-01-17T21:34:13.946Z,25.55
2023-01-17T21:36:44.782Z,32.63
2023-01-17T21:39:19.969Z,34.72
2023-01-17T21:41:50.836Z,36.25
2023-01-17T21:44:22.833Z,31.30
2023-01-17T21:46:55.060Z,33.05
2023-01-17T21:51:54.099Z,34.63
2023-01-17T21:54:45.724Z,31.42
2023-01-17T21:57:33.909Z,37.58
2023-01-17T22:00:01.099Z,42.35
2023-01-17T22:02:29.215Z,30.63
2023-01-17T22:04:58.874Z,37.13
2023-01-17T22:07:36.643Z,29.70
2023-01-17T22:10:05.631Z,29.02
2023-01-17T22:12:33.067Z,27.85
2023-01-17T22:15:02.130Z,33.47
2023-01-17T22:17:31.411Z,29.75
2023-01-17T22:19:58.580Z,22.90
2023-01-17T22:22:25.854Z,25.63
2023-01-17T22:24:52.938Z,29.23
2023-01-17T22:27:20.568Z,28.70
2023-01-17T22:29:47.673Z,33.08
2023-01-17T22:32:14.764Z,23.10
2023-01-17T22:34:42.039Z,26.20
2023-01-17T22:37:10.270Z,40.05
2023-01-17T22:39:38.951Z,28.02
2023-01-17T22:42:06.485Z,17.25
2023-01-17T22:44:33.972Z,30.10
2023-01-17T22:47:01.117Z,28.92
2023-01-17T22:49:31.398Z,36.53
2023-01-17T22:52:01.211Z,28.73
2023-01-17T22:54:30.923Z,38.50
2023-01-17T22:56:58.966Z,36.05
2023-01-17T22:59:26.302Z,32.45
2023-01-17T23:01:53.857Z,32.22
2023-01-17T23:04:21.067Z,37.38
2023-01-17T23:06:48.232Z,41.72
2023-01-17T23:09:17.413Z,44.60
2023-01-17T23:11:51.015Z,32.88
2023-01-17T23:15:04.777Z,36.85
2023-01-17T23:20:17.756Z,34.33
2023-01-17T23:22:45.115Z,28.48
2023-01-17T23:25:13.819Z,30.98
2023-01-17T23:28:02.094Z,36.60
2023-01-17T23:30:35.693Z,38.58
2023-01-17T23:33:14.082Z,31.65
2023-01-17T23:35:44.077Z,36.78
2023-01-17T23:38:34.039Z,37.30
2023-01-17T23:41:25.368Z,37.58
2023-01-17T23:43:54.050Z,41.28
2023-01-17T23:46:21.765Z,42.03
2023-01-17T23:48:49.112Z,38.40
2023-01-17T23:51:17.432Z,39.65
2023-01-17T23:53:44.497Z,33.72
2023-01-17T23:56:24.068Z,34.85
2023-01-17T23:58:51.461Z,43.33
